createdAt,value
2023-05-06T00:02:09.084Z,58.94
2023-05-06T00:05:12.053Z,59.95
2023-05-06T00:08:14.604Z,59.34
2023-05-06T00:11:17.313Z,59.63
2023-05-06T00:14:19.752Z,60.11
2023-05-06T00:17:22.433Z,60.08
2023-05-06T00:20:25.444Z,59.97
2023-05-06T00:23:28.283Z,60.33
2023-05-06T00:26:30.898Z,59.95
2023-05-06T00:29:33.590Z,60.01
2023-05-06T00:32:36.094Z,59.97
2023-05-06T00:35:38.938Z,59.99
2023-05-06T00:38:41.381Z,60.15
2023-05-06T00:41:44.125Z,60.29
2023-05-06T00:44:46.442Z,60.23
2023-05-06T00:47:49.102Z,60.37
2023-05-06T00:50:51.517Z,61.06
2023-05-06T00:53:54.396Z,60.45
2023-05-06T00:56:57.016Z,60.56
2023-05-06T00:59:59.654Z,60.58
2023-05-06T01:03:02.152Z,61.05
2023-05-06T01:06:19.495Z,60.93
2023-05-06T01:09:38.448Z,60.96
2023-05-06T01:12:49.076Z,61.15
2023-05-06T01:15:55.492Z,61.25
2023-05-06T01:19:00.392Z,61.27
2023-05-06T01:22:06.164Z,61.47
2023-05-06T01:25:19.311Z,61.74
2023-05-06T01:28:22.091Z,61.97
2023-05-06T01:31:32.527Z,62.12
2023-05-06T01:35:01.830Z,62.26
2023-05-06T01:38:32.601Z,62.29
2023-05-06T01:41:40.841Z,62.81
2023-05-06T01:44:46.016Z,63.04
2023-05-06T01:47:50.107Z,63.10
2023-05-06T01:50:52.959Z,63.58
2023-05-06T01:53:55.432Z,63.08
2023-05-06T01:56:58.269Z,63.16
2023-05-06T02:00:00.646Z,64.21
2023-05-06T02:03:03.657Z,63.24
2023-05-06T02:06:06.485Z,64.05
2023-05-06T02:09:10.752Z,64.01
2023-05-06T02:12:13.695Z,63.05
2023-05-06T02:15:17.035Z,63.69
2023-05-06T02:18:19.810Z,63.31
2023-05-06T02:21:22.682Z,63.27
2023-05-06T02:24:26.208Z,63.79
2023-05-06T02:27:28.577Z,62.74
2023-05-06T02:30:32.273Z,63.78
2023-05-06T02:33:34.937Z,63.56
2023-05-06T02:36:37.568Z,64.20
2023-05-06T02:39:39.958Z,62.96
2023-05-06T02:42:42.647Z,64.15
2023-05-06T02:45:44.987Z,63.11
2023-05-06T02:48:47.611Z,62.92
2023-05-06T02:51:49.987Z,63.00
2023-05-06T02:54:52.761Z,62.99
2023-05-06T02:57:55.347Z,63.28
2023-05-06T03:00:58.033Z,63.55
2023-05-06T03:04:00.392Z,64.57
2023-05-06T03:07:03.600Z,63.90
2023-05-06T03:10:07.469Z,63.82
2023-05-06T03:13:10.835Z,64.34
2023-05-06T03:16:16.462Z,64.44
2023-05-06T03:19:19.757Z,64.31
2023-05-06T03:22:22.277Z,63.65
2023-05-06T03:25:25.182Z,63.33
2023-05-06T03:28:28.057Z,65.25
2023-05-06T03:31:31.338Z,63.55
2023-05-06T03:34:33.924Z,63.58
2023-05-06T03:37:36.920Z,63.73
2023-05-06T03:40:39.927Z,64.47
2023-05-06T03:43:42.845Z,65.19
2023-05-06T03:46:46.184Z,65.28
2023-05-06T03:49:48.993Z,65.24
2023-05-06T03:52:51.835Z,64.08
2023-05-06T03:55:55.231Z,64.53
2023-05-06T03:58:57.906Z,63.84
2023-05-06T04:02:01.108Z,64.55
2023-05-06T04:05:04.589Z,64.28
2023-05-06T04:08:07.238Z,63.94
2023-05-06T04:11:10.970Z,63.91
2023-05-06T04:14:13.640Z,64.03
2023-05-06T04:17:16.573Z,64.18
2023-05-06T04:20:19.315Z,64.95
2023-05-06T04:23:22.199Z,64.73
2023-05-06T04:26:25.062Z,64.92
2023-05-06T04:29:27.636Z,64.18
2023-05-06T04:32:30.450Z,64.11
2023-05-06T04:35:34.038Z,63.81
2023-05-06T04:38:37.521Z,63.90
2023-05-06T04:41:40.465Z,63.87
2023-05-06T04:44:43.672Z,64.08
2023-05-06T04:47:46.497Z,64.27
2023-05-06T04:50:50.716Z,64.31
2023-05-06T04:53:53.589Z,64.46
2023-05-06T04:56:56.558Z,64.56
2023-05-06T04:59:59.472Z,64.59
2023-05-06T05:03:02.475Z,64.63
2023-05-06T05:06:05.721Z,64.61
2023-05-06T05:09:08.130Z,64.52
2023-05-06T05:12:12.918Z,64.65
2023-05-06T05:15:15.863Z,64.81
2023-05-06T05:18:19.080Z,64.76
2023-05-06T05:21:21.875Z,64.78
2023-05-06T05:24:24.666Z,64.82
2023-05-06T05:27:27.402Z,64.77
2023-05-06T05:30:31.353Z,65.02
2023-05-06T05:33:33.831Z,64.48
2023-05-06T05:36:37.315Z,64.43
2023-05-06T05:39:40.896Z,64.55
2023-05-06T05:42:44.651Z,64.19
2023-05-06T05:45:48.111Z,64.18
2023-05-06T05:48:50.770Z,64.21
2023-05-06T05:51:53.912Z,64.14
2023-05-06T05:54:56.788Z,63.86
2023-05-06T05:57:59.859Z,63.86
2023-05-06T06:01:04.188Z,64.15
2023-05-06T06:04:07.403Z,63.59
2023-05-06T06:07:10.098Z,63.16
2023-05-06T06:10:14.897Z,62.73
2023-05-06T06:13:17.842Z,64.80
2023-05-06T06:16:20.696Z,61.87
2023-05-06T06:19:24.209Z,61.48
2023-05-06T06:22:27.369Z,62.15
2023-05-06T06:25:30.547Z,61.37
2023-05-06T06:28:33.436Z,60.78
2023-05-06T06:31:36.634Z,60.84
2023-05-06T06:34:41.308Z,60.36
2023-05-06T06:37:43.645Z,60.84
2023-05-06T06:40:46.526Z,60.19
2023-05-06T06:43:48.903Z,60.89
2023-05-06T06:46:51.917Z,60.91
2023-05-06T06:49:54.416Z,59.15
2023-05-06T06:52:57.026Z,59.07
2023-05-06T06:55:59.532Z,58.92
2023-05-06T06:59:02.303Z,61.69
2023-05-06T07:02:07.493Z,60.84
2023-05-06T07:05:10.556Z,58.93
2023-05-06T07:08:13.174Z,59.28
2023-05-06T07:11:15.898Z,59.28
2023-05-06T07:14:18.297Z,56.46
2023-05-06T07:17:21.057Z,56.33
2023-05-06T07:20:23.556Z,57.20
2023-05-06T07:23:26.286Z,57.33
2023-05-06T07:26:28.670Z,56.89
2023-05-06T07:29:31.519Z,54.79
2023-05-06T07:32:33.940Z,54.57
2023-05-06T07:35:37.167Z,53.86
2023-05-06T07:38:39.800Z,56.43
2023-05-06T07:41:42.476Z,54.21
2023-05-06T07:44:44.918Z,52.90
2023-05-06T07:47:47.674Z,53.41
2023-05-06T07:50:50.208Z,51.88
2023-05-06T07:53:53.092Z,51.39
2023-05-06T07:56:55.733Z,51.27
2023-05-06T07:59:59.603Z,51.38
2023-05-06T08:03:02.063Z,51.54
2023-05-06T08:06:05.037Z,51.10
2023-05-06T08:09:07.423Z,51.67
2023-05-06T08:12:10.248Z,50.67
2023-05-06T08:15:12.785Z,51.04
2023-05-06T08:18:22.225Z,49.49
2023-05-06T08:21:25.474Z,49.96
2023-05-06T08:24:28.591Z,50.08
2023-05-06T08:27:31.161Z,48.04
2023-05-06T08:30:33.950Z,47.07
2023-05-06T08:33:36.435Z,45.92
2023-05-06T08:36:39.186Z,46.32
2023-05-06T08:39:41.672Z,46.95
2023-05-06T08:42:49.775Z,46.78
2023-05-06T08:45:52.193Z,46.30
2023-05-06T08:48:54.995Z,45.68
2023-05-06T08:51:58.156Z,44.21
2023-05-06T08:55:04.916Z,44.39
2023-05-06T08:58:08.399Z,43.97
2023-05-06T09:01:14.414Z,42.87
2023-05-06T09:04:18.443Z,43.70
2023-05-06T09:07:22.340Z,41.64
2023-05-06T09:10:31.771Z,40.66
2023-05-06T09:13:34.396Z,41.28
2023-05-06T09:16:37.699Z,41.21
2023-05-06T09:19:40.862Z,40.69
2023-05-06T09:22:46.282Z,40.31
2023-05-06T09:25:51.916Z,39.35
2023-05-06T09:28:54.883Z,38.28
2023-05-06T09:31:57.405Z,37.19
2023-05-06T09:35:00.200Z,37.40
2023-05-06T09:38:03.819Z,37.37
2023-05-06T09:41:07.897Z,37.72
2023-05-06T09:44:11.674Z,36.08
2023-05-06T09:47:15.155Z,37.26
2023-05-06T09:50:18.050Z,37.12
2023-05-06T09:53:23.499Z,36.52
2023-05-06T09:56:26.929Z,36.66
2023-05-06T09:59:30.783Z,37.12
2023-05-06T10:02:33.777Z,37.38
2023-05-06T10:05:37.695Z,35.92
2023-05-06T10:08:41.460Z,34.62
2023-05-06T10:11:45.585Z,35.86
2023-05-06T10:14:48.105Z,36.52
2023-05-06T10:17:52.833Z,35.87
2023-05-06T10:20:56.985Z,37.32
2023-05-06T10:24:09.127Z,37.61
2023-05-06T10:27:12.666Z,35.67
2023-05-06T10:30:21.643Z,37.97
2023-05-06T10:33:26.574Z,38.96
2023-05-06T10:36:33.578Z,39.72
2023-05-06T10:39:36.140Z,38.49
2023-05-06T10:42:38.801Z,38.60
2023-05-06T10:46:16.930Z,37.97
2023-05-06T10:49:20.913Z,40.74
2023-05-06T10:52:23.478Z,37.90
2023-05-06T10:55:33.796Z,37.21
2023-05-06T10:58:36.824Z,39.10
2023-05-06T11:01:43.262Z,37.01
2023-05-06T11:04:51.572Z,37.47
2023-05-06T11:08:08.664Z,38.88
2023-05-06T11:11:48.615Z,38.97
2023-05-06T11:14:51.329Z,37.91
2023-05-06T11:17:55.755Z,38.15
2023-05-06T11:21:02.412Z,38.59
2023-05-06T11:24:04.745Z,38.08
2023-05-06T11:27:08.394Z,38.38
2023-05-06T11:30:14.512Z,38.56
2023-05-06T11:33:23.556Z,39.62
2023-05-06T11:36:28.352Z,37.99
2023-05-06T11:39:40.553Z,41.23
2023-05-06T11:42:43.612Z,38.18
2023-05-06T11:45:48.140Z,38.34
2023-05-06T11:48:51.072Z,38.52
2023-05-06T11:51:55.023Z,39.28
2023-05-06T11:54:57.317Z,39.84
2023-05-06T11:57:59.958Z,38.20
2023-05-06T12:01:04.411Z,37.55
2023-05-06T12:04:07.259Z,39.58
2023-05-06T12:07:11.855Z,37.93
2023-05-06T12:10:17.052Z,37.99
2023-05-06T12:13:20.357Z,38.42
2023-05-06T12:16:24.216Z,37.98
2023-05-06T12:19:26.846Z,38.01
2023-05-06T12:22:29.476Z,38.09
2023-05-06T12:25:31.888Z,38.78
2023-05-06T12:28:36.048Z,38.95
2023-05-06T12:31:38.825Z,39.51
2023-05-06T12:34:41.612Z,38.76
2023-05-06T12:37:43.911Z,38.62
2023-05-06T12:40:54.118Z,38.41
2023-05-06T12:43:56.463Z,38.78
2023-05-06T12:47:03.351Z,39.05
2023-05-06T12:50:06.112Z,39.15
2023-05-06T12:53:10.608Z,39.47
2023-05-06T12:56:13.308Z,40.64
2023-05-06T12:59:16.078Z,39.76
2023-05-06T13:02:18.723Z,40.33
2023-05-06T13:05:22.039Z,40.82
2023-05-06T13:08:24.374Z,39.96
2023-05-06T13:11:27.982Z,39.90
2023-05-06T13:14:30.482Z,39.87
2023-05-06T13:17:33.349Z,39.88
2023-05-06T13:20:36.673Z,39.83
2023-05-06T13:23:46.900Z,39.74
2023-05-06T13:26:49.317Z,39.83
2023-05-06T13:29:52.043Z,41.06
2023-05-06T13:32:54.407Z,40.47
2023-05-06T13:35:57.247Z,40.66
2023-05-06T13:38:59.675Z,40.62
2023-05-06T13:42:08.057Z,40.35
2023-05-06T13:45:11.355Z,40.40
2023-05-06T13:48:14.598Z,41.90
2023-05-06T13:51:17.068Z,43.41
2023-05-06T13:54:19.700Z,43.27
2023-05-06T13:57:24.361Z,44.05
2023-05-06T14:00:30.316Z,44.31
2023-05-06T14:03:33.132Z,45.12
2023-05-06T14:06:35.602Z,45.35
2023-05-06T14:09:38.242Z,45.49
2023-05-06T14:12:43.033Z,45.84
2023-05-06T14:15:45.900Z,46.91
2023-05-06T14:18:48.914Z,46.88
2023-05-06T14:21:51.826Z,48.66
2023-05-06T14:24:54.636Z,48.65
2023-05-06T14:27:57.327Z,48.15
2023-05-06T14:30:59.748Z,48.74
2023-05-06T14:34:02.893Z,49.56
2023-05-06T14:37:05.953Z,51.17
2023-05-06T14:40:10.095Z,50.59
2023-05-06T14:43:12.501Z,51.67
2023-05-06T14:46:16.028Z,53.69
2023-05-06T14:49:18.529Z,54.42
2023-05-06T14:52:21.597Z,55.37
2023-05-06T14:55:24.008Z,55.42
2023-05-06T14:58:27.663Z,56.37
2023-05-06T15:01:32.382Z,57.22
2023-05-06T15:04:35.380Z,58.34
2023-05-06T15:07:37.979Z,59.10
2023-05-06T15:10:41.196Z,59.66
2023-05-06T15:13:43.565Z,60.41
2023-05-06T15:16:46.633Z,60.98
2023-05-06T15:19:49.010Z,61.39
2023-05-06T15:22:51.640Z,61.20
2023-05-06T15:25:54.099Z,61.54
2023-05-06T15:28:56.741Z,62.14
2023-05-06T15:31:59.266Z,62.24
2023-05-06T15:35:04.900Z,62.39
2023-05-06T15:38:07.292Z,62.46
2023-05-06T15:41:09.956Z,62.53
2023-05-06T15:44:12.665Z,63.16
2023-05-06T15:47:15.342Z,62.77
2023-05-06T15:50:31.718Z,62.86
2023-05-06T15:53:38.694Z,63.34
2023-05-06T15:56:41.749Z,64.07
2023-05-06T15:59:44.522Z,62.86
2023-05-06T16:02:47.093Z,63.08
2023-05-06T16:05:49.986Z,62.94
2023-05-06T16:08:52.453Z,62.57
2023-05-06T16:11:55.220Z,62.47
2023-05-06T16:14:58.390Z,62.23
2023-05-06T16:18:01.600Z,62.21
2023-05-06T16:21:07.528Z,62.11
2023-05-06T16:24:10.222Z,62.36
2023-05-06T16:27:12.641Z,62.28
2023-05-06T16:30:15.881Z,61.74
2023-05-06T16:33:18.325Z,62.00
2023-05-06T16:36:20.958Z,62.32
2023-05-06T16:39:23.303Z,62.31
2023-05-06T16:42:25.976Z,62.30
2023-05-06T16:45:28.316Z,62.34
2023-05-06T16:48:31.035Z,62.38
2023-05-06T16:51:33.487Z,62.48
2023-05-06T16:54:36.666Z,62.95
2023-05-06T16:57:39.023Z,62.82
2023-05-06T17:00:41.902Z,62.40
2023-05-06T17:03:45.570Z,62.35
2023-05-06T17:06:48.006Z,63.20
2023-05-06T17:10:06.036Z,62.72
2023-05-06T17:13:11.616Z,62.47
2023-05-06T17:16:14.037Z,63.22
2023-05-06T17:19:16.905Z,63.10
2023-05-06T17:22:21.237Z,63.49
2023-05-06T17:25:23.988Z,63.17
2023-05-06T17:28:26.341Z,63.91
2023-05-06T17:31:29.067Z,64.06
2023-05-06T17:34:32.807Z,64.46
2023-05-06T17:37:36.444Z,64.48
2023-05-06T17:40:38.888Z,64.24
2023-05-06T17:43:43.346Z,64.38
2023-05-06T17:46:46.519Z,64.12
2023-05-06T17:49:50.673Z,64.10
2023-05-06T17:52:54.555Z,64.15
2023-05-06T17:55:57.165Z,63.72
2023-05-06T17:59:03.567Z,64.35
2023-05-06T18:02:08.742Z,64.33
2023-05-06T18:05:11.918Z,64.50
2023-05-06T18:08:14.723Z,64.43
2023-05-06T18:11:17.799Z,64.31
2023-05-06T18:14:20.126Z,64.88
2023-05-06T18:17:22.867Z,64.76
2023-05-06T18:20:25.443Z,64.73
2023-05-06T18:23:29.623Z,64.90
2023-05-06T18:26:44.125Z,64.69
2023-05-06T18:29:51.030Z,64.61
2023-05-06T18:32:55.215Z,64.42
2023-05-06T18:35:59.201Z,64.37
2023-05-06T18:39:01.971Z,64.72
2023-05-06T18:42:04.616Z,64.69
2023-05-06T18:45:07.613Z,65.20
2023-05-06T18:48:10.991Z,65.30
2023-05-06T18:51:15.813Z,65.26
2023-05-06T18:54:18.679Z,65.03
2023-05-06T18:57:21.217Z,64.89
2023-05-06T19:00:24.365Z,65.19
2023-05-06T19:03:27.141Z,65.65
2023-05-06T19:06:31.549Z,66.38
2023-05-06T19:09:36.956Z,65.36
2023-05-06T19:12:39.744Z,65.53
2023-05-06T19:15:42.201Z,64.99
2023-05-06T19:18:44.820Z,64.00
2023-05-06T19:21:47.289Z,64.80
2023-05-06T19:24:50.093Z,64.02
2023-05-06T19:27:52.772Z,63.80
2023-05-06T19:30:55.515Z,74.56
2023-05-06T19:33:57.872Z,79.54
2023-05-06T19:37:01.052Z,80.34
2023-05-06T19:40:04.446Z,85.79
2023-05-06T19:43:07.090Z,87.90
2023-05-06T19:46:10.825Z,89.74
2023-05-06T19:49:16.439Z,89.50
2023-05-06T19:52:19.180Z,90.57
2023-05-06T19:55:22.206Z,88.26
2023-05-06T19:58:27.784Z,92.44
2023-05-06T20:01:30.545Z,94.88
2023-05-06T20:04:34.333Z,95.27
2023-05-06T20:07:38.228Z,94.63
2023-05-06T20:10:41.044Z,89.92
2023-05-06T20:13:43.347Z,90.99
2023-05-06T20:16:46.112Z,93.50
2023-05-06T20:19:49.715Z,94.78
2023-05-06T20:22:52.151Z,94.31
2023-05-06T20:25:54.570Z,86.11
2023-05-06T20:28:58.443Z,91.59
2023-05-06T20:32:01.184Z,90.77
2023-05-06T20:35:04.560Z,94.46
2023-05-06T20:38:09.298Z,94.53
2023-05-06T20:41:11.975Z,95.34
2023-05-06T20:44:14.317Z,92.69
2023-05-06T20:47:17.380Z,93.22
2023-05-06T20:50:19.899Z,93.29
2023-05-06T20:53:22.733Z,93.18
2023-05-06T20:56:25.599Z,92.02
2023-05-06T20:59:29.613Z,87.58
2023-05-06T21:02:34.196Z,87.36
2023-05-06T21:05:38.549Z,86.76
2023-05-06T21:08:41.109Z,84.80
2023-05-06T21:11:44.084Z,83.85
2023-05-06T21:14:46.431Z,83.85
2023-05-06T21:17:49.239Z,85.10
2023-05-06T21:20:51.688Z,85.38
2023-05-06T21:23:54.276Z,83.34
2023-05-06T21:26:56.705Z,86.13
2023-05-06T21:29:59.275Z,86.03
2023-05-06T21:33:02.518Z,87.40
2023-05-06T21:36:05.691Z,87.33
2023-05-06T21:39:10.449Z,87.10
2023-05-06T21:42:13.024Z,86.96
2023-05-06T21:45:16.278Z,86.63
2023-05-06T21:48:19.185Z,84.86
2023-05-06T21:51:21.504Z,84.92
2023-05-06T21:54:25.089Z,84.83
2023-05-06T21:57:27.487Z,83.38
2023-05-06T22:00:30.197Z,83.40
2023-05-06T22:03:33.055Z,83.41
2023-05-06T22:06:35.464Z,80.82
2023-05-06T22:09:38.134Z,82.00
2023-05-06T22:12:40.657Z,82.04
2023-05-06T22:15:43.416Z,77.41
2023-05-06T22:18:45.888Z,75.49
2023-05-06T22:21:48.485Z,74.50
2023-05-06T22:24:50.884Z,74.88
2023-05-06T22:27:53.460Z,72.43
2023-05-06T22:30:55.739Z,72.11
2023-05-06T22:34:03.500Z,74.75
2023-05-06T22:37:09.706Z,72.73
2023-05-06T22:40:13.159Z,74.17
2023-05-06T22:43:15.522Z,72.76
2023-05-06T22:46:18.545Z,72.83
2023-05-06T22:49:21.013Z,74.11
2023-05-06T22:52:25.378Z,74.69
2023-05-06T22:55:27.954Z,77.29
2023-05-06T22:58:30.767Z,76.45
2023-05-06T23:01:33.543Z,77.08
2023-05-06T23:04:36.806Z,77.53
2023-05-06T23:07:39.210Z,77.40
2023-05-06T23:10:42.184Z,78.58
2023-05-06T23:13:44.572Z,78.45
2023-05-06T23:16:47.280Z,79.06
2023-05-06T23:19:49.690Z,78.10
2023-05-06T23:22:52.466Z,75.25
2023-05-06T23:25:54.886Z,75.95
2023-05-06T23:28:57.613Z,77.22
2023-05-06T23:32:00.541Z,78.75
2023-05-06T23:35:04.729Z,80.47
2023-05-06T23:38:07.503Z,77.75
2023-05-06T23:41:11.791Z,73.59
2023-05-06T23:44:14.129Z,75.41
2023-05-06T23:47:16.830Z,74.67
2023-05-06T23:50:19.852Z,72.21
2023-05-06T23:53:22.486Z,76.10
2023-05-06T23:56:24.826Z,77.30
2023-05-06T23:59:29.620Z,78.67
